• Join FlightAware (Why Join?)
  • Login
  • US Flag 
03:21PM EDT


 

Airport Tracker/Info


-or-


 

Live Flight TrackerFlight Track Log ✈ UAL4234 ✈ 15-Apr-2013 ✈ KIAH - KRDU

Flight Track Log - Related Links

Times and Time Zones

All times are in EDT time to prevent confusion due to time zone crossing. See the UAL4234 flight status page for this flight to view local times or setup timezone preferences in your user account.

Time Position Orientation Groundspeed Altitude Reporting Facility
EDT Latitude Longitude Course Direction KTS MPH feet Rate Location/Type
05:17PM 29.9569 -95.3369 97° East 174 200 800  Level Houston Center
05:18PM 29.9422 -95.2928 111° Southeast 209 241 2,100 1,680 Climbing Houston Center
05:19PM 29.9286 -95.2164 102° East 221 254 4,300 2,100 Climbing Houston Center
05:20PM 29.9217 -95.1122 94° East 264 304 6,900 2,280 Climbing Houston Center
05:21PM 29.9108 -94.7956 95° East  Level FlightAware Approximate
05:22PM 29.8993 -94.6601 97° East  Level FlightAware Approximate
05:22PM 29.9150 -95.0222 95° East 276 318 9,100  Level Houston Center
05:23PM 29.8844 -94.5251 97° East  Level FlightAware Approximate
05:23PM 29.9083 -94.9250 94° East 294 338 10,400  Level Houston Center
05:24PM 29.9000 -94.8131 95° East 332 382 11,400 1,080 Climbing Houston Center
05:25PM 29.8906 -94.6931 95° East 364 419 12,700 1,260 Climbing Houston Center
05:26PM 29.8814 -94.5706 95° East 378 435 14,100 1,260 Climbing Houston Center
05:27PM 29.8719 -94.4450 95° East 389 448 15,400 1,200 Climbing Houston Center
05:28PM 29.8597 -94.2886 95° East 408 470 16,700 1,200 Climbing Houston Center
05:29PM 29.8564 -94.1569 92° East 414 476 17,900 1,200 Climbing Houston Center
05:30PM 29.8539 -94.0233 91° East 419 482 19,300 1,380 Climbing Houston Center
05:31PM 29.8697 -93.8922 82° East 416 479 20,800 1,200 Climbing Houston Center
05:32PM 29.8828 -93.7594 83° East 417 480 21,900 960 Climbing Houston Center
05:33PM 29.8975 -93.6233 83° East 430 495 22,800 780 Climbing Houston Center
05:34PM 29.9133 -93.4525 84° East 446 513 23,600 1,200 Climbing Houston Center
05:35PM 29.9292 -93.3131 83° East 444 511 25,300 1,740 Climbing Houston Center
05:36PM 29.9431 -93.1708 84° East 418 481 27,300 1,620 Climbing Houston Center
05:37PM 29.9564 -93.0431 83° East 405 466 28,700 1,200 Climbing Houston Center
05:38PM 29.9692 -92.9142 83° East 405 466 29,800 1,020 Climbing Houston Center
05:39PM 29.9811 -92.7836 84° East 412 474 30,900 1,080 Climbing Houston Center
05:40PM 29.9908 -92.6519 85° East 415 478 32,100 1,320 Climbing Houston Center
05:41PM 30.0158 -92.5019 79° East 403 464 33,700 1,200 Climbing Houston Center
05:42PM 30.0386 -92.3772 78° East 400 460 34,600 600 Climbing Houston Center
05:43PM 30.0617 -92.2544 78° East 396 456 35,000 180 Climbing Houston Center
05:44PM 30.0856 -92.1233 78° East 410 472 35,000  Level Houston Center
05:45PM 30.1117 -91.9831 78° East 437 503 35,000  Level Houston Center
05:46PM 30.1450 -91.8069 78° East 463 533 35,000  Level Houston Center
05:47PM 30.1725 -91.6581 78° East 474 545 35,000  Level Houston Center
05:48PM 30.2031 -91.5039 77° East 484 557 35,000  Level Houston Center
05:49PM 30.2306 -91.3497 78° East 490 564 35,000  Level Houston Center
05:51PM 30.2553 -91.1947 80° East 491 565 35,000  Level Houston Center
05:52PM 30.2842 -91.0425 78° East 488 562 35,000  Level Houston Center
05:53PM 30.3164 -90.8558 79° East 492 566 35,000  Level Houston Center
05:54PM 30.3428 -90.7003 79° East 493 567 35,000  Level Houston Center
05:55PM 30.3689 -90.5453 79° East 492 566 35,000  Level Houston Center
05:56PM 30.3969 -90.3889 78° East 495 570 35,000  Level Houston Center
05:57PM 30.4231 -90.2322 79° East 496 571 35,000  Level Houston Center
05:58PM 30.4492 -90.0764 79° East 491 565 35,000  Level Houston Center
05:59PM 30.4758 -89.9183 79° East 493 567 35,000  Level Houston Center
06:00PM 30.5097 -89.7264 78° East 494 568 35,000  Level Houston Center
06:01PM 30.5336 -89.5692 80° East 490 564 35,000  Level Houston Center
06:02PM 30.5583 -89.4158 79° East 481 554 35,000  Level Houston Center
06:03PM 30.6008 -89.2706 71° East 480 552 35,000  Level Houston Center
06:04PM 30.6708 -89.1444 57° Northeast 467 537 35,000  Level Houston Center
06:05PM 30.7422 -89.0189 56° Northeast 465 535 35,000  Level Houston Center
06:06PM 30.8253 -88.8708 57° Northeast 469 540 35,000  Level Houston Center
06:07PM 30.8992 -88.7403 57° Northeast 479 551 35,000  Level Houston Center
06:08PM 30.9764 -88.6039 57° Northeast 487 560 35,000  Level Houston Center
06:09PM 31.0514 -88.4722 56° Northeast 487 560 35,000  Level Houston Center
06:10PM 31.1233 -88.3392 58° Northeast 485 558 35,000  Level Houston Center
06:11PM 31.1994 -88.2078 56° Northeast 490 564 35,000  Level Houston Center
06:12PM 31.2767 -88.0706 57° Northeast 482 555 35,000  Level Houston Center
06:13PM 31.3494 -87.9381 57° Northeast 484 557 35,000  Level Houston Center
06:14PM 31.4361 -87.7794 57° Northeast 481 554 35,000  Level Houston Center
06:15PM 31.5083 -87.6475 57° Northeast 481 554 35,000  Level Houston Center
06:16PM 31.5811 -87.5075 59° Northeast 483 556 35,000  Level Atlanta Center
06:17PM 31.6372 -87.3658 65° Northeast 477 549 35,000  Level Atlanta Center
06:18PM 31.6819 -87.2503 66° East 477 549 35,000  Level Atlanta Center
06:19PM 31.7403 -87.0889 67° East 482 555 35,000  Level Atlanta Center
06:20PM 31.7939 -86.9417 67° East 482 555 35,000  Level Atlanta Center
06:21PM 31.8514 -86.7992 65° Northeast 482 555 35,000  Level Atlanta Center
06:22PM 31.9047 -86.6517 67° East 477 549 35,000  Level Atlanta Center
06:23PM 31.9725 -86.4969 63° Northeast 477 549 35,000  Level Atlanta Center
06:24PM 32.0128 -86.3658 70° East 482 555 35,000  Level Atlanta Center
06:25PM 32.0633 -86.2200 68° East 476 548 35,000  Level Atlanta Center
06:26PM 32.1222 -86.0744 64° Northeast 476 548 35,000  Level Atlanta Center
06:27PM 32.1725 -85.9283 68° East 476 548 35,000  Level Atlanta Center
06:28PM 32.2356 -85.7650 65° Northeast 482 555 35,000  Level Atlanta Center
06:29PM 32.2897 -85.6186 66° East 482 555 35,000  Level Atlanta Center
06:30PM 32.3414 -85.4744 67° East 482 555 35,000  Level Atlanta Center
06:31PM 32.3975 -85.3278 66° East 477 549 35,000  Level Atlanta Center
06:32PM 32.4469 -85.1833 68° East 477 549 35,000  Level Atlanta Center
06:33PM 32.5044 -85.0389 65° Northeast 477 549 35,000  Level Atlanta Center
06:34PM 32.5514 -84.8864 70° East 477 549 35,000  Level Atlanta Center
06:35PM 32.6044 -84.7614 63° Northeast 469 540 35,000  Level Atlanta Center
06:36PM 32.6553 -84.6111 68° East 474 545 35,000  Level Atlanta Center
06:37PM 32.7081 -84.4633 67° East 479 551 35,000  Level Atlanta Center
06:38PM 32.7608 -84.3156 67° East 479 551 35,000  Level Atlanta Center
06:39PM 32.8153 -84.1672 66° East 474 545 35,000  Level Atlanta Center
06:40PM 32.8717 -84.0042 68° East 480 552 35,000  Level Atlanta Center
06:41PM 32.9236 -83.8558 67° East 480 552 35,000  Level Atlanta Center
06:42PM 32.9756 -83.7069 67° East 475 547 35,000  Level Atlanta Center
06:43PM 33.0272 -83.5581 67° East 475 547 35,000  Level Atlanta Center
06:44PM 33.0706 -83.4267 68° East 470 541 35,000  Level Atlanta Center
06:45PM 33.1239 -83.2650 68° East 475 547 35,000  Level Atlanta Center
06:46PM 33.1750 -83.1156 68° East 475 547 35,000  Level Atlanta Center
06:47PM 33.2239 -82.9686 68° East 475 547 35,000 -300 Level Atlanta Center
06:49PM 33.2742 -82.8146 69° East  Level FlightAware Approximate
06:49PM 33.3233 -82.6714 69° East 475 547 34,200  Level Atlanta Center
06:50PM 33.3758 -82.5214 67° East 475 547 33,200 -600 Descending Atlanta Center
06:51PM 33.4239 -82.3736 69° East 475 547 33,000 -120 Descending Atlanta Center
06:53PM 33.5208 -82.0853 68° East 479 551 33,000  Level Jacksonville Center
06:54PM 33.5697 -81.9378 68° East 479 551 33,000  Level Jacksonville Center
06:55PM 33.6417 -81.7975 58° Northeast 479 551 33,000  Level Jacksonville Center
06:56PM 33.7283 -81.6714 50° Northeast 484 557 33,000  Level Jacksonville Center
06:57PM 33.8147 -81.5453 50° Northeast 484 557 33,000  Level Jacksonville Center
06:58PM 33.8967 -81.4214 51° Northeast 479 551 33,000  Level Jacksonville Center
06:59PM 33.9808 -81.2947 51° Northeast 474 545 33,000  Level Jacksonville Center
07:00PM 34.0647 -81.1703 51° Northeast 474 545 33,000  Level Jacksonville Center
07:01PM 34.1464 -81.0458 52° Northeast 474 545 33,000  Level Jacksonville Center
07:02PM 34.2300 -80.9183 52° Northeast 479 551 33,000 -660 Level Jacksonville Center
07:03PM 34.3072 -80.7986 52° Northeast 479 551 31,800 -1,740 Descending Jacksonville Center
07:04PM 34.3928 -80.6733 50° Northeast 468 539 29,500 -2,220 Descending Jacksonville Center
07:06PM 34.5344 -80.4450 53° Northeast 475 547 25,400 -1,920 Descending Washington Center
07:07PM 34.6100 -80.3258 52° Northeast 461 531 24,000 -900 Descending Washington Center
07:08PM 34.6900 -80.2067 51° Northeast 454 522 23,600 -540 Descending Washington Center
07:09PM 34.7764 -80.0725 52° Northeast 454 522 23,000 -300 Descending Washington Center
07:10PM 34.8592 -79.9808 42° Northeast 448 516 23,000 -300 Level Washington Center
07:11PM 34.9506 -79.8769 43° Northeast 443 510 22,500 -720 Descending Washington Center
07:12PM 35.0436 -79.7778 41° Northeast 438 504 21,600 -1,020 Descending Washington Center
07:13PM 35.1261 -79.6881 42° Northeast 420 483 20,500 -1,260 Descending Washington Center
07:14PM 35.1997 -79.6081 42° Northeast 380 437 19,100 -1,320 Descending Washington Center
07:15PM 35.2747 -79.5483 33° Northeast 337 388 17,900 -1,560 Descending Washington Center
07:16PM 35.3453 -79.5033 27° Northeast 317 365 16,300 -2,100 Descending Washington Center
07:17PM 35.4308 -79.4386 32° Northeast 315 362 13,800 -2,460 Descending Washington Center
07:18PM 35.5078 -79.3811 31° Northeast 307 353 11,200 -2,280 Descending Washington Center
07:19PM 35.5583 -79.2967 54° Northeast 287 330 9,200 -1,800 Descending Washington Center
07:20PM 35.6025 -79.2144 57° Northeast 289 333 7,500 -1,680 Descending Washington Center
07:21PM 35.6361 -79.1419 60° Northeast 269 310 6,000 -1,320 Descending Washington Center
07:22PM 35.6714 -79.0744 57° Northeast 252 290 4,900 -1,200 Descending Washington Center
07:23PM 35.7069 -79.0017 59° Northeast 234 269 3,600 -960 Descending Washington Center
07:24PM 35.7547 -78.9347 49° Northeast 239 275 3,000 -720 Descending Washington Center
07:25PM 35.8000 -78.8803 44° Northeast 230 265 2,200 -900 Descending Washington Center
07:26PM 35.8325 -78.8356 48° Northeast 177 204 1,300 -840 Descending Washington Center
07:27PM 35.8561 -78.8108 40° Northeast 123 142 700 -720 Descending Washington Center
07:29PM 35.8667 -78.7833 51° Northeast  Level FlightAware Approximate